sensor_id;sensor_type;location;lat;lon;timestamp;pressure;altitude;pressure_sealevel;temperature;humidity
53758;BME280;39674;59.860;30.672;2023-04-05T00:02:12;101887.34;;;-0.92;100.00
53758;BME280;39674;59.860;30.672;2023-04-05T00:05:16;101891.63;;;-0.94;100.00
53758;BME280;39674;59.860;30.672;2023-04-05T00:08:15;101968.31;;;-0.57;100.00
53758;BME280;39674;59.860;30.672;2023-04-05T00:11:28;102035.56;;;-0.14;100.00
53758;BME280;39674;59.860;30.672;2023-04-05T00:14:26;101954.34;;;-0.65;100.00
53758;BME280;39674;59.860;30.672;2023-04-05T00:17:19;101958.69;;;-0.64;100.00
53758;BME280;39674;59.860;30.672;2023-04-05T00:19:59;101912.44;;;-0.91;100.00
53758;BME280;39674;59.860;30.672;2023-04-05T00:22:58;101903.75;;;-0.93;100.00
53758;BME280;39674;59.860;30.672;2023-04-05T00:25:49;101984.03;;;-0.49;100.00
53758;BME280;39674;59.860;30.672;2023-04-05T00:28:54;101982.22;;;-0.52;100.00
53758;BME280;39674;59.860;30.672;2023-04-05T00:31:29;101918.50;;;-0.91;100.00
53758;BME280;39674;59.860;30.672;2023-04-05T00:34:24;101983.19;;;-0.46;100.00
53758;BME280;39674;59.860;30.672;2023-04-05T00:37:14;101988.38;;;-0.46;100.00
53758;BME280;39674;59.860;30.672;2023-04-05T00:40:21;101957.81;;;-0.65;100.00
53758;BME280;39674;59.860;30.672;2023-04-05T00:43:20;101979.69;;;-0.49;100.00
53758;BME280;39674;59.860;30.672;2023-04-05T00:46:03;101904.69;;;-0.90;100.00
53758;BME280;39674;59.860;30.672;2023-04-05T00:49:05;101981.47;;;-0.44;100.00
53758;BME280;39674;59.860;30.672;2023-04-05T00:52:08;101901.16;;;-0.95;100.00
53758;BME280;39674;59.860;30.672;2023-04-05T00:55:08;101964.03;;;-0.55;100.00
53758;BME280;39674;59.860;30.672;2023-04-05T00:58:36;101937.94;;;-0.64;100.00
53758;BME280;39674;59.860;30.672;2023-04-05T01:01:21;101902.06;;;-0.91;100.00
53758;BME280;39674;59.860;30.672;2023-04-05T01:04:37;101974.59;;;-0.42;100.00
53758;BME280;39674;59.860;30.672;2023-04-05T01:07:45;101930.91;;;-0.71;100.00
53758;BME280;39674;59.860;30.672;2023-04-05T01:10:36;101967.53;;;-0.53;100.00
53758;BME280;39674;59.860;30.672;2023-04-05T01:15:46;102030.34;;;-0.17;100.00
53758;BME280;39674;59.860;30.672;2023-04-05T01:17:22;101897.75;;;-0.91;100.00
53758;BME280;39674;59.860;30.672;2023-04-05T01:20:20;101973.59;;;-0.51;100.00
53758;BME280;39674;59.860;30.672;2023-04-05T01:23:42;101931.69;;;-0.77;100.00
53758;BME280;39674;59.860;30.672;2023-04-05T01:28:43;101907.16;;;-0.99;100.00
53758;BME280;39674;59.860;30.672;2023-04-05T01:43:00;101983.03;;;-0.56;100.00
53758;BME280;39674;59.860;30.672;2023-04-05T01:50:11;101914.78;;;-1.07;100.00
53758;BME280;39674;59.860;30.672;2023-04-05T01:53:33;102066.72;;;-0.15;100.00
53758;BME280;39674;59.860;30.672;2023-04-05T01:56:41;101935.72;;;-0.96;100.00
53758;BME280;39674;59.860;30.672;2023-04-05T02:02:19;101998.59;;;-0.59;100.00
53758;BME280;39674;59.860;30.672;2023-04-05T02:04:27;101956.66;;;-0.84;100.00
53758;BME280;39674;59.860;30.672;2023-04-05T02:08:02;102016.03;;;-0.49;100.00
53758;BME280;39674;59.860;30.672;2023-04-05T02:16:44;101930.50;;;-0.99;100.00
53758;BME280;39674;59.860;30.672;2023-04-05T02:23:31;102022.97;;;-0.47;100.00
53758;BME280;39674;59.860;30.672;2023-04-05T02:26:46;102070.06;;;-0.23;100.00
53758;BME280;39674;59.860;30.672;2023-04-05T02:29:21;102027.25;;;-0.50;100.00
53758;BME280;39674;59.860;30.672;2023-04-05T02:35:40;102007.25;;;-0.57;100.00
53758;BME280;39674;59.860;30.672;2023-04-05T02:48:50;101959.31;;;-0.82;100.00
53758;BME280;39674;59.860;30.672;2023-04-05T02:50:15;102010.84;;;-0.49;100.00
53758;BME280;39674;59.860;30.672;2023-04-05T02:58:14;102062.34;;;-0.20;100.00
53758;BME280;39674;59.860;30.672;2023-04-05T03:01:04;101958.31;;;-0.89;100.00
53758;BME280;39674;59.860;30.672;2023-04-05T03:04:20;101982.78;;;-0.71;100.00
53758;BME280;39674;59.860;30.672;2023-04-05T03:08:18;101963.59;;;-0.83;100.00
53758;BME280;39674;59.860;30.672;2023-04-05T03:16:02;102010.66;;;-0.61;100.00
53758;BME280;39674;59.860;30.672;2023-04-05T03:27:39;102019.38;;;-0.56;100.00
53758;BME280;39674;59.860;30.672;2023-04-05T03:50:20;102048.13;;;-0.43;100.00
53758;BME280;39674;59.860;30.672;2023-04-05T03:53:43;102020.03;;;-0.68;100.00
53758;BME280;39674;59.860;30.672;2023-04-05T03:57:07;101951.94;;;-1.09;100.00
53758;BME280;39674;59.860;30.672;2023-04-05T03:59:54;102050.63;;;-0.50;100.00
53758;BME280;39674;59.860;30.672;2023-04-05T04:08:50;102076.03;;;-0.28;100.00
53758;BME280;39674;59.860;30.672;2023-04-05T04:14:41;102117.88;;;-0.10;100.00
53758;BME280;39674;59.860;30.672;2023-04-05T04:21:00;101989.53;;;-0.83;100.00
53758;BME280;39674;59.860;30.672;2023-04-05T04:39:38;102054.03;;;-0.54;100.00
53758;BME280;39674;59.860;30.672;2023-04-05T04:43:47;102129.22;;;-0.03;100.00
53758;BME280;39674;59.860;30.672;2023-04-05T04:46:49;102000.81;;;-0.82;100.00
53758;BME280;39674;59.860;30.672;2023-04-05T04:53:53;102008.63;;;-0.77;100.00
53758;BME280;39674;59.860;30.672;2023-04-05T05:00:50;102136.19;;;-0.02;100.00
53758;BME280;39674;59.860;30.672;2023-04-05T05:11:50;102037.47;;;-0.60;100.00
53758;BME280;39674;59.860;30.672;2023-04-05T05:32:39;102132.22;;;-0.32;100.00
53758;BME280;39674;59.860;30.672;2023-04-05T06:41:05;102189.09;;;0.66;100.00
53758;BME280;39674;59.860;30.672;2023-04-05T07:00:03;102182.78;;;1.13;100.00
53758;BME280;39674;59.860;30.672;2023-04-05T07:04:36;102190.66;;;1.21;100.00
53758;BME280;39674;59.860;30.672;2023-04-05T07:10:21;102240.44;;;1.52;100.00
53758;BME280;39674;59.860;30.672;2023-04-05T07:13:20;102188.09;;;1.24;100.00
53758;BME280;39674;59.860;30.672;2023-04-05T07:16:34;102105.16;;;0.76;100.00
53758;BME280;39674;59.860;30.672;2023-04-05T07:38:25;102237.72;;;2.33;100.00
53758;BME280;39674;59.860;30.672;2023-04-05T08:04:50;102259.88;;;3.02;100.00
53758;BME280;39674;59.860;30.672;2023-04-05T08:08:41;102149.91;;;2.31;100.00
53758;BME280;39674;59.860;30.672;2023-04-05T08:13:08;102257.28;;;3.10;100.00
53758;BME280;39674;59.860;30.672;2023-04-05T08:17:23;102257.28;;;3.11;100.00
53758;BME280;39674;59.860;30.672;2023-04-05T18:51:00;102488.13;;;0.61;100.00
53758;BME280;39674;59.860;30.672;2023-04-05T18:58:42;102366.19;;;-0.20;100.00
53758;BME280;39674;59.860;30.672;2023-04-05T19:02:05;102451.94;;;0.28;100.00
53758;BME280;39674;59.860;30.672;2023-04-05T19:08:31;102464.91;;;0.26;100.00
53758;BME280;39674;59.860;30.672;2023-04-05T19:11:59;102432.56;;;0.10;100.00
53758;BME280;39674;59.860;30.672;2023-04-05T19:14:37;102448.28;;;0.17;100.00
53758;BME280;39674;59.860;30.672;2023-04-05T19:17:46;102462.19;;;0.19;100.00
53758;BME280;39674;59.860;30.672;2023-04-05T19:21:34;102466.69;;;0.27;100.00
53758;BME280;39674;59.860;30.672;2023-04-05T19:24:11;102462.09;;;0.15;100.00
53758;BME280;39674;59.860;30.672;2023-04-05T19:27:05;102460.53;;;0.24;100.00
53758;BME280;39674;59.860;30.672;2023-04-05T19:29:51;102384.38;;;-0.20;100.00
53758;BME280;39674;59.860;30.672;2023-04-05T19:32:39;102449.09;;;0.14;100.00
53758;BME280;39674;59.860;30.672;2023-04-05T19:35:31;102395.63;;;-0.18;100.00
53758;BME280;39674;59.860;30.672;2023-04-05T19:38:08;102477.94;;;0.28;100.00
53758;BME280;39674;59.860;30.672;2023-04-05T19:40:59;102386.97;;;-0.20;100.00
53758;BME280;39674;59.860;30.672;2023-04-05T19:43:53;102521.88;;;0.60;100.00
53758;BME280;39674;59.860;30.672;2023-04-05T19:47:31;102395.75;;;-0.11;100.00
53758;BME280;39674;59.860;30.672;2023-04-05T19:51:01;102455.34;;;0.24;100.00
53758;BME280;39674;59.860;30.672;2023-04-05T19:54:01;102483.38;;;0.40;100.00
53758;BME280;39674;59.860;30.672;2023-04-05T20:03:43;102536.78;;;0.69;100.00
53758;BME280;39674;59.860;30.672;2023-04-05T20:06:39;102408.81;;;-0.08;100.00
53758;BME280;39674;59.860;30.672;2023-04-05T20:09:46;102493.00;;;0.44;100.00
53758;BME280;39674;59.860;30.672;2023-04-05T20:12:50;102518.41;;;0.58;100.00
53758;BME280;39674;59.860;30.672;2023-04-05T20:16:17;102429.00;;;0.05;100.00
53758;BME280;39674;59.860;30.672;2023-04-05T20:23:28;102407.97;;;-0.07;100.00
53758;BME280;39674;59.860;30.672;2023-04-05T20:26:35;102544.63;;;0.70;100.00
53758;BME280;39674;59.860;30.672;2023-04-05T20:29:26;102436.63;;;-0.03;100.00
53758;BME280;39674;59.860;30.672;2023-04-05T20:32:07;102434.00;;;-0.04;100.00
53758;BME280;39674;59.860;30.672;2023-04-05T20:35:27;102478.63;;;0.18;100.00
53758;BME280;39674;59.860;30.672;2023-04-05T20:38:03;102489.97;;;0.23;100.00
53758;BME280;39674;59.860;30.672;2023-04-05T20:40:58;102427.69;;;-0.17;100.00
53758;BME280;39674;59.860;30.672;2023-04-05T20:43:45;102511.69;;;0.26;100.00
53758;BME280;39674;59.860;30.672;2023-04-05T20:46:28;102501.22;;;0.22;100.00
53758;BME280;39674;59.860;30.672;2023-04-05T20:49:12;102430.06;;;-0.28;100.00
53758;BME280;39674;59.860;30.672;2023-04-05T20:51:49;102495.97;;;0.20;100.00
53758;BME280;39674;59.860;30.672;2023-04-05T20:54:28;102430.09;;;-0.25;100.00
53758;BME280;39674;59.860;30.672;2023-04-05T20:57:17;102445.91;;;-0.15;100.00
53758;BME280;39674;59.860;30.672;2023-04-05T20:59:55;102503.69;;;0.15;100.00
53758;BME280;39674;59.860;30.672;2023-04-05T21:02:50;102514.28;;;0.25;100.00
53758;BME280;39674;59.860;30.672;2023-04-05T21:05:36;102476.47;;;-0.02;100.00
53758;BME280;39674;59.860;30.672;2023-04-05T21:08:12;102483.47;;;0.01;100.00
53758;BME280;39674;59.860;30.672;2023-04-05T21:10:54;102489.53;;;0.01;100.00
53758;BME280;39674;59.860;30.672;2023-04-05T21:13:41;102519.34;;;0.19;100.00
53758;BME280;39674;59.860;30.672;2023-04-05T21:16:18;102519.28;;;0.15;100.00
53758;BME280;39674;59.860;30.672;2023-04-05T21:19:35;102438.66;;;-0.30;100.00
53758;BME280;39674;59.860;30.672;2023-04-05T21:22:51;102448.16;;;-0.31;100.00
53758;BME280;39674;59.860;30.672;2023-04-05T21:25:46;102535.81;;;0.19;100.00
53758;BME280;39674;59.860;30.672;2023-04-05T21:28:25;102443.03;;;-0.28;100.00
53758;BME280;39674;59.860;30.672;2023-04-05T21:30:57;102567.69;;;0.53;100.00
53758;BME280;39674;59.860;30.672;2023-04-05T21:33:35;102507.91;;;0.10;100.00
53758;BME280;39674;59.860;30.672;2023-04-05T21:36:32;102525.63;;;0.30;100.00
53758;BME280;39674;59.860;30.672;2023-04-05T21:39:22;102436.22;;;-0.23;100.00
53758;BME280;39674;59.860;30.672;2023-04-05T21:41:56;102503.75;;;0.19;100.00
53758;BME280;39674;59.860;30.672;2023-04-05T21:44:51;102537.97;;;0.40;100.00
53758;BME280;39674;59.860;30.672;2023-04-05T21:47:29;102502.97;;;0.23;100.00
53758;BME280;39674;59.860;30.672;2023-04-05T21:50:07;102511.69;;;0.25;100.00
53758;BME280;39674;59.860;30.672;2023-04-05T21:52:48;102521.41;;;0.35;100.00
53758;BME280;39674;59.860;30.672;2023-04-05T21:55:37;102516.19;;;0.35;100.00
53758;BME280;39674;59.860;30.672;2023-04-05T21:58:12;102444.34;;;-0.07;100.00
53758;BME280;39674;59.860;30.672;2023-04-05T22:00:54;102539.84;;;0.47;100.00
53758;BME280;39674;59.860;30.672;2023-04-05T22:03:28;102507.44;;;0.30;100.00
53758;BME280;39674;59.860;30.672;2023-04-05T22:06:06;102529.47;;;0.49;100.00
53758;BME280;39674;59.860;30.672;2023-04-05T22:08:46;102582.97;;;0.80;100.00
53758;BME280;39674;59.860;30.672;2023-04-05T22:11:48;102468.22;;;0.18;100.00
53758;BME280;39674;59.860;30.672;2023-04-05T22:14:25;102547.00;;;0.58;100.00
53758;BME280;39674;59.860;30.672;2023-04-05T22:16:59;102446.22;;;0.00;100.00
53758;BME280;39674;59.860;30.672;2023-04-05T22:19:37;102568.88;;;0.69;100.00
53758;BME280;39674;59.860;30.672;2023-04-05T22:22:29;102525.31;;;0.59;100.00
53758;BME280;39674;59.860;30.672;2023-04-05T22:26:02;102516.53;;;0.51;100.00
53758;BME280;39674;59.860;30.672;2023-04-05T22:28:53;102447.44;;;0.19;100.00
53758;BME280;39674;59.860;30.672;2023-04-05T22:32:07;102455.38;;;0.27;100.00
53758;BME280;39674;59.860;30.672;2023-04-05T22:35:13;102581.53;;;0.98;100.00
53758;BME280;39674;59.860;30.672;2023-04-05T22:38:29;102444.94;;;0.24;100.00
53758;BME280;39674;59.860;30.672;2023-04-05T22:41:36;102523.16;;;0.82;100.00
53758;BME280;39674;59.860;30.672;2023-04-05T22:44:19;102455.50;;;0.33;100.00
53758;BME280;39674;59.860;30.672;2023-04-05T22:50:40;102528.44;;;0.87;100.00
53758;BME280;39674;59.860;30.672;2023-04-05T22:54:15;102508.25;;;0.73;100.00
53758;BME280;39674;59.860;30.672;2023-04-05T22:56:34;102537.19;;;0.90;100.00
53758;BME280;39674;59.860;30.672;2023-04-05T23:02:48;102467.13;;;0.52;100.00
53758;BME280;39674;59.860;30.672;2023-04-05T23:09:42;102522.56;;;0.97;100.00
53758;BME280;39674;59.860;30.672;2023-04-05T23:13:07;102466.53;;;0.67;100.00
53758;BME280;39674;59.860;30.672;2023-04-05T23:16:24;102565.75;;;1.36;100.00
53758;BME280;39674;59.860;30.672;2023-04-05T23:22:44;102577.09;;;1.40;100.00
53758;BME280;39674;59.860;30.672;2023-04-05T23:25:40;102487.72;;;0.89;100.00
53758;BME280;39674;59.860;30.672;2023-04-05T23:28:26;102476.19;;;0.74;100.00
53758;BME280;39674;59.860;30.672;2023-04-05T23:31:10;102529.66;;;1.07;100.00
53758;BME280;39674;59.860;30.672;2023-04-05T23:34:45;102440.50;;;0.64;100.00
53758;BME280;39674;59.860;30.672;2023-04-05T23:38:01;102443.03;;;0.62;100.00
53758;BME280;39674;59.860;30.672;2023-04-05T23:41:17;102507.00;;;1.00;100.00
53758;BME280;39674;59.860;30.672;2023-04-05T23:44:36;102524.47;;;1.09;100.00
53758;BME280;39674;59.860;30.672;2023-04-05T23:48:31;102443.97;;;0.66;100.00
53758;BME280;39674;59.860;30.672;2023-04-05T23:54:45;102564.94;;;1.40;100.00
53758;BME280;39674;59.860;30.672;2023-04-05T23:59:09;102439.66;;;0.65;100.00
